createdAt,value
2022-09-04T00:00:02.354Z,15.30
2022-09-04T00:03:23.888Z,15.20
2022-09-04T00:06:08.265Z,15.10
2022-09-04T00:08:56.652Z,15.10
2022-09-04T00:17:15.703Z,14.80
2022-09-04T00:19:56.472Z,14.70
2022-09-04T00:23:19.923Z,14.80
2022-09-04T00:26:10.617Z,14.70
2022-09-04T00:28:50.237Z,14.70
2022-09-04T00:32:04.852Z,14.80
2022-09-04T00:34:59.667Z,14.60
2022-09-04T00:37:51.194Z,14.50
2022-09-04T00:46:21.908Z,14.40
2022-09-04T00:55:26.755Z,14.40
2022-09-04T00:58:29.697Z,14.30
2022-09-04T01:01:01.044Z,14.20
2022-09-04T01:04:05.909Z,14.10
2022-09-04T01:07:11.620Z,14.00
2022-09-04T01:10:19.611Z,14.00
2022-09-04T01:30:09.115Z,14.10
2022-09-04T01:33:16.239Z,14.10
2022-09-04T01:36:04.517Z,14.10
2022-09-04T01:39:02.568Z,14.00
2022-09-04T01:41:43.945Z,13.90
2022-09-04T01:50:04.594Z,13.90
2022-09-04T01:52:59.897Z,13.80
2022-09-04T01:55:38.999Z,13.70
2022-09-04T01:58:28.182Z,13.60
2022-09-04T03:14:25.116Z,13.60
2022-09-04T03:31:02.242Z,13.50
2022-09-04T03:33:43.764Z,13.50
2022-09-04T04:10:03.603Z,13.00
2022-09-04T04:23:01.287Z,12.70
2022-09-04T04:37:08.399Z,12.60
2022-09-04T04:40:00.447Z,12.50
2022-09-04T04:43:13.672Z,12.40
2022-09-04T04:46:52.541Z,12.40
2022-09-04T04:54:13.452Z,12.40
2022-09-04T05:51:02.427Z,12.60
2022-09-04T05:54:01.032Z,13.00
2022-09-04T05:56:51.887Z,14.10
2022-09-04T05:59:45.566Z,14.80
2022-09-04T06:02:49.638Z,15.20
2022-09-04T06:09:57.266Z,16.60
2022-09-04T06:13:14.129Z,17.40
2022-09-04T06:16:06.949Z,17.90
2022-09-04T06:33:12.552Z,20.20
2022-09-04T06:36:24.083Z,20.00
2022-09-04T06:39:39.039Z,20.80
2022-09-04T06:48:33.937Z,22.00
2022-09-04T06:51:46.572Z,22.70
2022-09-04T07:00:31.527Z,22.80
2022-09-04T07:03:31.276Z,23.10
2022-09-04T07:06:19.734Z,23.30
2022-09-04T07:44:59.528Z,25.20
2022-09-04T07:48:16.950Z,25.80
2022-09-04T08:15:26.569Z,26.90
2022-09-04T08:38:06.894Z,26.70
2022-09-04T08:41:11.227Z,27.10
2022-09-04T08:44:20.837Z,27.80
2022-09-04T08:52:33.966Z,27.40
2022-09-04T09:04:55.482Z,26.20
2022-09-04T09:08:08.683Z,27.70
2022-09-04T09:28:15.863Z,27.90
2022-09-04T09:31:10.418Z,24.70
2022-09-04T09:34:00.281Z,24.40
2022-09-04T09:37:07.616Z,25.10
2022-09-04T09:39:52.380Z,26.00
2022-09-04T09:46:28.800Z,28.60
2022-09-04T09:49:19.078Z,29.40
2022-09-04T09:52:17.253Z,29.40
2022-09-04T09:54:49.547Z,29.80
2022-09-04T09:57:44.657Z,30.30
2022-09-04T10:07:20.979Z,26.60
2022-09-04T10:10:02.243Z,26.70
2022-09-04T10:12:57.265Z,26.60
2022-09-04T10:16:07.940Z,26.90
2022-09-04T10:19:11.809Z,27.00
2022-09-04T10:22:19.122Z,26.90
2022-09-04T10:25:11.158Z,27.30
2022-09-04T10:28:09.255Z,26.60
2022-09-04T10:31:27.324Z,27.20
2022-09-04T10:34:16.188Z,27.40
2022-09-04T10:41:13.208Z,27.40
2022-09-04T10:44:17.787Z,27.60
2022-09-04T10:48:06.075Z,26.90
2022-09-04T10:51:02.398Z,26.60
2022-09-04T10:54:10.092Z,27.40
2022-09-04T10:57:18.858Z,28.60
2022-09-04T11:00:07.808Z,28.00
2022-09-04T11:14:06.533Z,27.00
2022-09-04T11:17:12.241Z,27.50
2022-09-04T11:20:07.621Z,27.50
2022-09-04T11:22:56.094Z,27.70
2022-09-04T11:31:29.565Z,27.80
2022-09-04T11:34:16.965Z,29.10
2022-09-04T11:36:58.308Z,28.70
2022-09-04T11:40:06.707Z,27.80
2022-09-04T11:42:51.662Z,28.30
2022-09-04T11:45:48.942Z,27.80
2022-09-04T11:48:47.659Z,29.60
2022-09-04T11:51:40.306Z,28.50
2022-09-04T11:54:31.936Z,29.70
2022-09-04T11:57:02.805Z,29.60
2022-09-04T11:59:50.334Z,30.10
2022-09-04T12:02:44.347Z,29.10
2022-09-04T12:05:39.459Z,30.00
2022-09-04T12:08:33.846Z,28.90
2022-09-04T12:11:37.069Z,28.40
2022-09-04T12:14:15.601Z,30.60
2022-09-04T12:22:36.637Z,31.20
2022-09-04T12:25:34.895Z,32.10
2022-09-04T12:29:50.442Z,31.10
2022-09-04T12:32:40.356Z,29.70
2022-09-04T12:35:45.358Z,30.80
2022-09-04T12:38:13.812Z,30.30
2022-09-04T12:41:19.364Z,30.20
2022-09-04T12:44:21.463Z,30.20
2022-09-04T12:47:22.199Z,29.70
2022-09-04T12:55:33.413Z,29.70
2022-09-04T12:58:44.917Z,28.80
2022-09-04T13:01:47.354Z,28.00
2022-09-04T13:04:46.972Z,28.10
2022-09-04T13:07:35.017Z,28.10
2022-09-04T13:15:30.783Z,28.10
2022-09-04T13:19:05.955Z,28.10
2022-09-04T13:36:16.796Z,27.00
2022-09-04T13:39:33.014Z,26.90
2022-09-04T13:42:24.208Z,27.30
2022-09-04T13:45:05.914Z,27.60
2022-09-04T13:47:49.910Z,27.50
2022-09-04T13:50:25.584Z,27.50
2022-09-04T13:53:04.513Z,27.60
2022-09-04T13:56:00.889Z,27.50
2022-09-04T14:22:48.999Z,26.60
2022-09-04T14:25:51.197Z,27.00
2022-09-04T14:28:31.470Z,27.00
2022-09-04T14:31:11.946Z,27.00
2022-09-04T14:34:07.153Z,26.90
2022-09-04T14:37:08.424Z,27.00
2022-09-04T14:49:09.123Z,26.70
2022-09-04T14:51:46.811Z,26.90
2022-09-04T14:54:37.765Z,26.80
2022-09-04T14:57:24.698Z,26.90
2022-09-04T15:00:06.349Z,26.70
2022-09-04T15:02:55.298Z,26.10
2022-09-04T15:05:29.763Z,26.50
2022-09-04T15:08:02.978Z,26.50
2022-09-04T15:10:53.958Z,26.50
2022-09-04T15:14:00.150Z,26.30
2022-09-04T15:16:45.767Z,26.40
2022-09-04T15:19:32.727Z,26.10
2022-09-04T15:22:39.672Z,26.30
2022-09-04T15:29:52.440Z,26.30
2022-09-04T15:43:07.167Z,26.20
2022-09-04T15:46:25.289Z,26.00
2022-09-04T15:49:27.124Z,26.00
2022-09-04T16:01:06.729Z,25.90
2022-09-04T16:03:47.748Z,25.80
2022-09-04T16:07:35.036Z,25.90
2022-09-04T16:10:13.949Z,25.90
2022-09-04T16:12:53.234Z,25.70
2022-09-04T16:20:35.838Z,25.60
2022-09-04T16:23:10.967Z,25.50
2022-09-04T16:25:43.765Z,25.50
2022-09-04T16:28:38.433Z,25.50
2022-09-04T16:34:54.622Z,25.60
2022-09-04T16:37:55.328Z,25.60
2022-09-04T16:40:32.533Z,25.40
2022-09-04T16:43:10.248Z,25.50
2022-09-04T16:53:59.503Z,25.20
2022-09-04T16:57:13.146Z,25.10
2022-09-04T17:00:42.830Z,25.20
2022-09-04T17:03:25.604Z,25.00
2022-09-04T17:06:07.684Z,24.90
2022-09-04T17:08:40.032Z,24.90
2022-09-04T17:11:23.557Z,24.90
2022-09-04T17:14:08.949Z,24.80
2022-09-04T17:17:29.831Z,24.80
2022-09-04T17:34:32.833Z,24.40
2022-09-04T17:40:37.985Z,24.40
2022-09-04T17:47:43.872Z,23.90
2022-09-04T18:09:26.466Z,23.30
2022-09-04T18:12:34.663Z,23.10
2022-09-04T18:15:52.612Z,23.00
2022-09-04T18:37:12.807Z,22.70
2022-09-04T18:38:41.869Z,22.50
2022-09-04T18:46:39.938Z,22.50
2022-09-04T18:50:24.179Z,22.40
2022-09-04T18:50:42.919Z,22.30
2022-09-04T18:51:47.495Z,22.30
2022-09-04T18:54:54.178Z,22.20
2022-09-04T18:57:32.545Z,22.20
2022-09-04T19:00:09.434Z,22.10
2022-09-04T19:02:54.376Z,22.00
2022-09-04T19:05:44.377Z,21.90
2022-09-04T19:09:18.048Z,21.90
2022-09-04T19:11:51.296Z,21.80
2022-09-04T19:14:35.413Z,21.70
2022-09-04T19:17:29.483Z,21.60
2022-09-04T19:20:09.622Z,21.50
2022-09-04T19:22:54.378Z,21.40
2022-09-04T19:25:35.406Z,21.30
2022-09-04T19:28:14.153Z,21.20
2022-09-04T19:30:52.949Z,21.20
2022-09-04T19:34:00.275Z,21.10
2022-09-04T19:37:16.288Z,21.10
2022-09-04T19:46:04.983Z,21.00
2022-09-04T19:46:26.413Z,21.00
2022-09-04T19:46:28.218Z,20.90
2022-09-04T19:51:33.821Z,20.80
2022-09-04T20:01:01.207Z,20.60
2022-09-04T20:03:51.785Z,20.50
2022-09-04T20:06:34.391Z,20.20
2022-09-04T20:09:08.744Z,20.30
2022-09-04T20:11:46.575Z,20.30
2022-09-04T20:14:34.129Z,20.20
2022-09-04T20:17:31.294Z,20.20
2022-09-04T20:20:23.575Z,20.10
2022-09-04T20:23:34.820Z,20.10
2022-09-04T20:26:36.089Z,19.90
2022-09-04T20:29:36.561Z,19.90
2022-09-04T20:32:10.932Z,19.90
2022-09-04T20:35:12.934Z,19.70
2022-09-04T20:43:05.563Z,19.70
2022-09-04T20:49:13.956Z,19.70
2022-09-04T20:52:59.376Z,19.60
2022-09-04T20:53:04.899Z,19.50
2022-09-04T20:55:32.505Z,19.50
2022-09-04T21:02:07.920Z,19.40
2022-09-04T21:03:21.625Z,19.30
2022-09-04T21:04:51.209Z,19.30
2022-09-04T21:07:52.911Z,19.20
2022-09-04T21:10:41.352Z,19.20
2022-09-04T21:20:55.116Z,19.10
2022-09-04T21:29:39.462Z,19.00
2022-09-04T21:32:08.820Z,18.90
2022-09-04T21:40:51.899Z,18.70
2022-09-04T21:43:43.291Z,18.60
2022-09-04T21:46:32.504Z,18.70
2022-09-04T21:49:35.182Z,18.60
2022-09-04T21:52:31.821Z,18.50
2022-09-04T21:57:45.740Z,18.40
2022-09-04T22:02:35.359Z,18.40
2022-09-04T22:02:41.702Z,18.40
2022-09-04T22:13:42.210Z,18.00
2022-09-04T22:19:34.972Z,17.90
2022-09-04T22:22:54.268Z,17.60
2022-09-04T22:26:11.288Z,17.60
2022-09-04T22:34:15.022Z,17.40
2022-09-04T22:37:29.889Z,17.20
2022-09-04T22:40:43.129Z,17.30
2022-09-04T22:43:27.228Z,17.40
2022-09-04T22:56:24.464Z,17.30
2022-09-04T22:59:26.166Z,17.20
2022-09-04T23:02:16.613Z,16.90
2022-09-04T23:05:06.378Z,16.90
2022-09-04T23:13:44.262Z,17.00
2022-09-04T23:13:53.396Z,17.00
2022-09-04T23:16:12.028Z,17.00
2022-09-04T23:22:35.461Z,17.00
2022-09-04T23:37:08.964Z,17.00
2022-09-04T23:45:57.894Z,17.00
2022-09-04T23:48:49.987Z,16.90
